createdAt,value
2017-07-26T00:00:00.427Z,86.00
2017-07-26T00:03:04.637Z,86.00
2017-07-26T00:06:08.688Z,86.10
2017-07-26T00:09:12.006Z,85.90
2017-07-26T00:12:15.310Z,85.90
2017-07-26T00:15:18.699Z,86.00
2017-07-26T00:18:22.004Z,86.10
2017-07-26T00:21:25.323Z,86.20
2017-07-26T00:24:28.638Z,86.20
2017-07-26T00:27:32.740Z,86.50
2017-07-26T00:30:37.206Z,86.50
2017-07-26T00:33:40.510Z,86.50
2017-07-26T00:36:43.826Z,86.30
2017-07-26T00:39:49.506Z,86.30
2017-07-26T00:42:53.666Z,86.70
2017-07-26T00:45:58.900Z,86.60
2017-07-26T00:49:03.094Z,86.70
2017-07-26T00:52:07.913Z,86.70
2017-07-26T00:55:14.259Z,86.30
2017-07-26T00:58:17.587Z,86.30
2017-07-26T01:01:21.204Z,86.40
2017-07-26T01:04:25.759Z,86.30
2017-07-26T01:07:30.133Z,86.30
2017-07-26T01:10:33.583Z,86.50
2017-07-26T01:13:36.973Z,86.70
2017-07-26T01:16:41.230Z,86.80
2017-07-26T01:19:45.146Z,86.70
2017-07-26T01:22:49.727Z,86.90
2017-07-26T01:25:53.058Z,86.90
2017-07-26T01:28:56.444Z,87.00
2017-07-26T01:31:59.758Z,86.90
2017-07-26T01:35:03.067Z,86.90
2017-07-26T01:38:07.912Z,86.90
2017-07-26T01:41:12.277Z,87.00
2017-07-26T01:44:15.600Z,87.20
2017-07-26T01:47:18.904Z,87.00
2017-07-26T01:50:22.240Z,87.10
2017-07-26T01:53:26.520Z,87.00
2017-07-26T01:56:29.826Z,86.90
2017-07-26T01:59:33.173Z,87.00
2017-07-26T02:02:36.459Z,87.00
2017-07-26T02:05:40.569Z,87.10
2017-07-26T02:08:44.784Z,87.80
2017-07-26T02:11:48.862Z,87.60
2017-07-26T02:14:52.286Z,87.60
2017-07-26T02:17:55.575Z,87.60
2017-07-26T02:20:58.897Z,87.90
2017-07-26T02:24:02.941Z,87.60
2017-07-26T02:27:06.250Z,87.50
2017-07-26T02:30:09.613Z,87.60
2017-07-26T02:33:12.955Z,87.90
2017-07-26T02:36:16.657Z,87.50
2017-07-26T02:39:19.965Z,87.70
2017-07-26T02:42:23.306Z,87.80
2017-07-26T02:45:26.589Z,87.50
2017-07-26T02:48:30.696Z,87.60
2017-07-26T02:51:34.751Z,87.60
2017-07-26T02:54:38.090Z,87.50
2017-07-26T02:57:41.397Z,87.80
2017-07-26T03:00:45.512Z,88.00
2017-07-26T03:03:48.831Z,87.90
2017-07-26T03:06:52.133Z,87.80
2017-07-26T03:09:55.449Z,88.00
2017-07-26T03:12:58.760Z,87.80
2017-07-26T03:16:02.097Z,87.50
2017-07-26T03:19:06.145Z,87.80
2017-07-26T03:22:09.455Z,87.80
2017-07-26T03:25:12.970Z,87.90
2017-07-26T03:28:16.272Z,87.80
2017-07-26T03:31:19.586Z,87.80
2017-07-26T03:34:22.898Z,87.60
2017-07-26T03:37:26.979Z,87.90
2017-07-26T03:40:30.262Z,87.80
2017-07-26T03:43:33.579Z,87.60
2017-07-26T03:46:36.890Z,87.50
2017-07-26T03:49:40.244Z,87.50
2017-07-26T03:52:43.559Z,87.80
2017-07-26T03:55:46.841Z,87.70
2017-07-26T03:58:50.164Z,87.50
2017-07-26T04:01:53.469Z,87.80
2017-07-26T04:04:56.799Z,88.00
2017-07-26T04:08:00.105Z,87.90
2017-07-26T04:11:03.418Z,88.00
2017-07-26T04:14:07.113Z,87.80
2017-07-26T04:17:10.394Z,87.70
2017-07-26T04:20:13.728Z,87.50
2017-07-26T04:23:17.011Z,87.80
2017-07-26T04:26:20.326Z,87.60
2017-07-26T04:29:23.610Z,87.60
2017-07-26T04:32:26.949Z,87.60
2017-07-26T04:35:31.005Z,87.90
2017-07-26T04:38:34.323Z,87.90
2017-07-26T04:41:37.641Z,87.90
2017-07-26T04:44:40.926Z,87.90
2017-07-26T04:47:44.251Z,88.10
2017-07-26T04:50:48.326Z,88.20
2017-07-26T04:53:51.648Z,88.20
2017-07-26T04:56:54.930Z,88.40
2017-07-26T04:59:58.245Z,88.30
2017-07-26T05:03:02.297Z,88.30
2017-07-26T05:06:05.610Z,88.30
2017-07-26T05:09:08.929Z,88.20
2017-07-26T05:12:12.221Z,88.10
2017-07-26T05:15:15.547Z,88.30
2017-07-26T05:18:19.618Z,87.70
2017-07-26T05:21:22.934Z,87.70
2017-07-26T05:24:26.250Z,88.50
2017-07-26T05:27:30.356Z,88.00
2017-07-26T05:30:33.677Z,87.90
2017-07-26T05:33:37.724Z,88.30
2017-07-26T05:36:41.073Z,88.90
2017-07-26T05:39:45.142Z,88.40
2017-07-26T05:42:48.480Z,88.40
2017-07-26T05:45:52.669Z,88.40
2017-07-26T05:48:55.955Z,88.30
2017-07-26T05:51:59.293Z,88.20
2017-07-26T05:55:03.347Z,88.90
2017-07-26T05:58:06.709Z,88.20
2017-07-26T06:01:10.761Z,88.20
2017-07-26T06:04:14.099Z,88.00
2017-07-26T06:07:17.412Z,88.20
2017-07-26T06:10:21.526Z,87.80
2017-07-26T06:13:25.636Z,87.90
2017-07-26T06:16:29.715Z,87.50
2017-07-26T06:19:33.040Z,87.40
2017-07-26T06:22:36.353Z,87.70
2017-07-26T06:25:40.457Z,87.50
2017-07-26T06:28:44.525Z,87.50
2017-07-26T06:31:47.843Z,87.40
2017-07-26T06:34:51.270Z,87.60
2017-07-26T06:37:55.333Z,87.50
2017-07-26T06:40:58.647Z,87.50
2017-07-26T06:44:01.966Z,87.60
2017-07-26T06:47:05.305Z,87.80
2017-07-26T06:50:08.712Z,87.90
2017-07-26T06:53:12.050Z,87.70
2017-07-26T06:56:15.337Z,88.00
2017-07-26T06:59:18.658Z,89.00
2017-07-26T07:02:22.740Z,88.00
2017-07-26T07:05:26.060Z,87.90
2017-07-26T07:08:29.506Z,88.50
2017-07-26T07:11:32.795Z,88.30
2017-07-26T07:14:36.115Z,88.50
2017-07-26T07:17:39.479Z,88.10
2017-07-26T07:20:42.816Z,88.00
2017-07-26T07:23:46.124Z,88.40
2017-07-26T07:26:49.439Z,88.30
2017-07-26T07:29:53.920Z,88.80
2017-07-26T07:32:57.218Z,87.90
2017-07-26T07:36:00.563Z,88.30
2017-07-26T07:39:03.897Z,88.10
2017-07-26T07:42:07.236Z,88.20
2017-07-26T07:45:10.531Z,88.30
2017-07-26T07:48:13.873Z,88.80
2017-07-26T07:51:17.170Z,88.30
2017-07-26T07:54:20.490Z,88.70
2017-07-26T07:57:23.814Z,88.40
2017-07-26T08:00:27.126Z,88.00
2017-07-26T08:03:31.230Z,89.40
2017-07-26T08:06:34.541Z,88.70
2017-07-26T08:09:38.628Z,87.90
2017-07-26T08:12:41.933Z,87.90
2017-07-26T08:15:45.373Z,88.00
2017-07-26T08:18:48.697Z,86.90
2017-07-26T08:21:52.036Z,86.80
2017-07-26T08:24:55.468Z,87.10
2017-07-26T08:27:58.759Z,86.50
2017-07-26T08:31:02.436Z,86.70
2017-07-26T08:34:05.743Z,86.60
2017-07-26T08:37:09.069Z,87.40
2017-07-26T08:40:13.225Z,86.70
2017-07-26T08:43:16.569Z,86.60
2017-07-26T08:46:19.875Z,87.30
2017-07-26T08:49:23.985Z,88.20
2017-07-26T08:52:27.325Z,88.10
2017-07-26T08:55:30.609Z,87.10
2017-07-26T08:58:33.953Z,87.00
2017-07-26T09:01:37.238Z,86.50
2017-07-26T09:04:40.577Z,85.10
2017-07-26T09:07:44.635Z,85.50
2017-07-26T09:10:47.949Z,85.40
2017-07-26T09:13:51.285Z,85.30
2017-07-26T09:16:55.389Z,85.10
2017-07-26T09:19:58.710Z,85.10
2017-07-26T09:23:02.042Z,85.00
2017-07-26T09:26:05.355Z,82.80
2017-07-26T09:29:08.633Z,84.00
2017-07-26T09:32:11.969Z,80.80
2017-07-26T09:35:15.259Z,84.30
2017-07-26T09:38:18.569Z,82.00
2017-07-26T09:41:22.925Z,79.00
2017-07-26T09:44:26.222Z,79.00
2017-07-26T09:47:29.668Z,82.40
2017-07-26T09:50:32.953Z,79.70
2017-07-26T09:53:36.294Z,77.30
2017-07-26T09:56:39.574Z,74.90
2017-07-26T09:59:42.909Z,77.00
2017-07-26T10:02:46.196Z,78.20
2017-07-26T10:05:49.526Z,77.50
2017-07-26T10:08:53.099Z,79.50
2017-07-26T10:11:56.377Z,81.80
2017-07-26T10:14:59.713Z,78.50
2017-07-26T10:18:02.985Z,76.80
2017-07-26T10:21:06.364Z,78.50
2017-07-26T10:24:09.645Z,77.80
2017-07-26T10:27:13.740Z,75.20
2017-07-26T10:30:17.822Z,74.10
2017-07-26T10:33:21.137Z,74.60
2017-07-26T10:36:24.497Z,72.90
2017-07-26T10:39:27.778Z,76.90
2017-07-26T10:42:31.110Z,73.40
2017-07-26T10:45:35.350Z,77.50
2017-07-26T10:48:38.709Z,75.60
2017-07-26T10:51:42.010Z,77.20
2017-07-26T10:54:46.306Z,74.50
2017-07-26T10:57:49.753Z,75.70
2017-07-26T11:00:53.051Z,74.90
2017-07-26T11:03:56.494Z,73.80
2017-07-26T11:06:59.796Z,75.60
2017-07-26T11:10:03.125Z,75.30
2017-07-26T11:13:06.429Z,74.20
2017-07-26T11:16:09.771Z,75.00
2017-07-26T11:19:13.062Z,72.00
2017-07-26T11:22:16.377Z,67.30
2017-07-26T11:25:19.990Z,70.10
2017-07-26T11:28:23.295Z,67.30
2017-07-26T11:31:27.462Z,67.00
2017-07-26T11:34:31.519Z,69.70
2017-07-26T11:37:34.842Z,69.70
2017-07-26T11:40:38.130Z,68.20
2017-07-26T11:43:41.459Z,67.90
2017-07-26T11:46:45.505Z,63.00
2017-07-26T11:49:48.837Z,63.10
2017-07-26T11:52:52.154Z,62.20
2017-07-26T11:55:55.431Z,66.40
2017-07-26T11:58:58.765Z,66.10
2017-07-26T12:02:02.050Z,67.20
2017-07-26T12:05:06.150Z,61.90
2017-07-26T12:08:09.431Z,61.90
2017-07-26T12:11:12.737Z,65.40
2017-07-26T12:14:16.405Z,63.30
2017-07-26T12:17:20.510Z,65.30
2017-07-26T12:20:23.844Z,61.90
2017-07-26T12:23:27.123Z,63.00
2017-07-26T12:26:30.557Z,60.00
2017-07-26T12:29:34.643Z,61.80
2017-07-26T12:32:38.061Z,61.80
2017-07-26T12:35:41.369Z,60.00
2017-07-26T12:38:44.700Z,57.60
2017-07-26T12:41:47.981Z,56.10
2017-07-26T12:44:52.061Z,58.90
2017-07-26T12:47:55.369Z,58.70
2017-07-26T12:50:58.704Z,59.20
2017-07-26T12:54:02.221Z,61.00
2017-07-26T12:57:05.497Z,57.70
2017-07-26T13:00:09.102Z,57.30
2017-07-26T13:03:12.381Z,59.50
2017-07-26T13:06:16.457Z,52.50
2017-07-26T13:09:19.762Z,52.30
2017-07-26T13:12:23.089Z,53.00
2017-07-26T13:15:27.165Z,57.40
2017-07-26T13:18:30.477Z,57.30
2017-07-26T13:21:33.813Z,54.10
2017-07-26T13:24:37.121Z,54.00
2017-07-26T13:27:40.430Z,56.20
2017-07-26T13:30:43.705Z,54.20
2017-07-26T13:33:47.015Z,57.30
2017-07-26T13:36:50.390Z,60.90
2017-07-26T13:39:53.725Z,57.20
2017-07-26T13:42:57.030Z,60.20
2017-07-26T13:46:00.370Z,61.50
2017-07-26T13:49:03.917Z,60.20
2017-07-26T13:52:07.216Z,60.70
2017-07-26T13:55:10.555Z,60.50
2017-07-26T13:58:14.620Z,66.80
2017-07-26T14:01:17.954Z,66.80
2017-07-26T14:04:22.019Z,61.60
2017-07-26T14:07:25.353Z,61.60
2017-07-26T14:10:28.912Z,58.10
2017-07-26T14:13:32.197Z,58.90
2017-07-26T14:16:35.506Z,61.20
2017-07-26T14:19:38.805Z,60.20
2017-07-26T14:22:42.110Z,63.00
2017-07-26T14:25:45.416Z,64.10
2017-07-26T14:28:48.736Z,65.20
2017-07-26T14:31:52.182Z,62.00
2017-07-26T14:34:55.480Z,62.00
2017-07-26T14:37:58.786Z,65.50
2017-07-26T14:41:02.077Z,63.60
2017-07-26T14:44:05.385Z,62.00
2017-07-26T14:47:08.666Z,63.30
2017-07-26T14:50:11.970Z,59.30
2017-07-26T14:53:15.428Z,58.60
2017-07-26T14:56:19.492Z,61.70
2017-07-26T14:59:22.825Z,61.70
2017-07-26T15:02:26.108Z,60.50
2017-07-26T15:05:29.417Z,60.00
2017-07-26T15:08:33.476Z,64.30
2017-07-26T15:11:36.802Z,64.50
2017-07-26T15:14:40.106Z,63.90
2017-07-26T15:17:43.456Z,67.90
2017-07-26T15:20:46.986Z,65.10
2017-07-26T15:23:50.293Z,66.80
2017-07-26T15:26:53.633Z,62.10
2017-07-26T15:29:56.933Z,57.80
2017-07-26T15:33:00.258Z,62.60
2017-07-26T15:36:03.584Z,59.60
2017-07-26T15:39:06.922Z,59.10
2017-07-26T15:42:10.203Z,60.00
2017-07-26T15:45:13.539Z,59.00
2017-07-26T15:48:16.980Z,57.10
2017-07-26T15:51:20.263Z,56.30
2017-07-26T15:54:23.710Z,56.50
2017-07-26T15:57:27.013Z,59.40
2017-07-26T16:00:30.322Z,58.10
2017-07-26T16:03:33.625Z,58.50
2017-07-26T16:06:37.150Z,59.70
2017-07-26T16:09:40.452Z,59.60
2017-07-26T16:12:43.806Z,62.50
2017-07-26T16:15:47.139Z,59.70
2017-07-26T16:18:50.426Z,60.10
2017-07-26T16:21:53.870Z,61.00
2017-07-26T16:24:57.177Z,62.70
2017-07-26T16:28:00.685Z,64.70
2017-07-26T16:31:04.039Z,65.30
2017-07-26T16:34:07.374Z,64.90
2017-07-26T16:37:10.689Z,66.50
2017-07-26T16:40:13.994Z,65.40
2017-07-26T16:43:17.329Z,68.60
2017-07-26T16:46:20.610Z,63.30
2017-07-26T16:49:23.945Z,62.40
2017-07-26T16:52:28.051Z,63.60
2017-07-26T16:55:32.154Z,64.50
2017-07-26T16:58:35.433Z,64.40
2017-07-26T17:01:38.770Z,65.90
2017-07-26T17:04:42.084Z,61.20
2017-07-26T17:07:45.437Z,62.30
2017-07-26T17:10:48.828Z,62.90
2017-07-26T17:13:52.182Z,63.80
2017-07-26T17:16:55.850Z,62.70
2017-07-26T17:19:59.157Z,61.50
2017-07-26T17:23:02.497Z,62.20
2017-07-26T17:26:06.547Z,65.40
2017-07-26T17:29:09.868Z,65.30
2017-07-26T17:32:13.169Z,61.00
2017-07-26T17:35:16.504Z,62.20
2017-07-26T17:38:19.810Z,63.10
2017-07-26T17:41:23.117Z,64.30
2017-07-26T17:44:26.417Z,66.30
2017-07-26T17:47:29.725Z,66.10
2017-07-26T17:50:33.010Z,68.40
2017-07-26T17:53:36.328Z,70.20
2017-07-26T17:56:39.826Z,71.50
2017-07-26T17:59:43.132Z,72.40
2017-07-26T18:02:46.441Z,70.60
2017-07-26T18:05:49.727Z,72.30
2017-07-26T18:08:53.044Z,72.10
2017-07-26T18:11:57.102Z,73.70
2017-07-26T18:15:00.411Z,73.60
2017-07-26T18:18:03.695Z,73.90
2017-07-26T18:21:07.399Z,74.30
2017-07-26T18:24:10.973Z,74.30
2017-07-26T18:27:14.494Z,74.20
2017-07-26T18:30:18.048Z,74.50
2017-07-26T18:33:22.252Z,74.50
2017-07-26T18:36:25.569Z,74.30
2017-07-26T18:39:28.972Z,74.60
2017-07-26T18:42:33.201Z,74.00
2017-07-26T18:45:36.511Z,73.90
2017-07-26T18:48:40.019Z,73.60
2017-07-26T18:51:43.503Z,73.80
2017-07-26T18:54:47.568Z,73.80
2017-07-26T18:57:51.704Z,73.70
2017-07-26T19:00:55.049Z,73.60
2017-07-26T19:03:58.884Z,73.60
2017-07-26T19:07:02.198Z,73.40
2017-07-26T19:10:05.541Z,73.20
2017-07-26T19:13:08.846Z,73.10
2017-07-26T19:16:12.156Z,73.50
2017-07-26T19:19:15.454Z,73.20
2017-07-26T19:22:18.788Z,73.10
2017-07-26T19:25:22.113Z,73.10
2017-07-26T19:28:25.482Z,72.90
2017-07-26T19:31:29.609Z,73.00
2017-07-26T19:34:33.782Z,73.50
2017-07-26T19:37:37.136Z,72.80
2017-07-26T19:40:41.250Z,72.70
2017-07-26T19:43:44.609Z,72.60
2017-07-26T19:46:48.044Z,72.60
2017-07-26T19:49:52.243Z,73.00
2017-07-26T19:52:56.325Z,72.70
2017-07-26T19:55:59.621Z,72.60
2017-07-26T19:59:03.062Z,72.70
2017-07-26T20:05:16.781Z,72.90
2017-07-26T20:08:20.206Z,72.90
2017-07-26T20:11:24.328Z,73.80
2017-07-26T20:14:28.544Z,73.40
2017-07-26T20:17:31.848Z,73.40
2017-07-26T20:20:36.153Z,73.10
2017-07-26T20:23:39.462Z,73.10
2017-07-26T20:26:43.562Z,74.00
2017-07-26T20:29:46.871Z,73.20
2017-07-26T20:32:50.965Z,73.20
2017-07-26T20:35:54.574Z,73.10
2017-07-26T20:38:57.858Z,73.00
2017-07-26T20:42:01.198Z,73.00
2017-07-26T20:45:05.269Z,72.50
2017-07-26T20:48:08.586Z,72.40
2017-07-26T20:51:11.893Z,72.20
2017-07-26T20:54:16.096Z,72.70
2017-07-26T20:57:20.273Z,72.60
2017-07-26T21:00:23.586Z,72.30
2017-07-26T21:03:26.866Z,72.80
2017-07-26T21:06:30.174Z,73.30
2017-07-26T21:09:33.621Z,72.70
2017-07-26T21:12:36.925Z,72.00
2017-07-26T21:15:40.258Z,73.30
2017-07-26T21:18:43.538Z,71.90
2017-07-26T21:21:46.881Z,71.70
2017-07-26T21:24:50.171Z,66.70
2017-07-26T21:27:53.485Z,69.20
2017-07-26T21:30:57.597Z,71.60
2017-07-26T21:34:01.704Z,68.20
2017-07-26T21:37:05.381Z,68.10
2017-07-26T21:40:08.739Z,69.40
2017-07-26T21:43:12.058Z,66.40
2017-07-26T21:46:15.337Z,65.00
2017-07-26T21:49:18.649Z,67.20
2017-07-26T21:52:21.953Z,65.30
2017-07-26T21:55:25.261Z,63.80
2017-07-26T21:58:28.536Z,63.30
2017-07-26T22:01:31.891Z,63.10
2017-07-26T22:04:36.029Z,64.50
2017-07-26T22:07:39.355Z,64.30
2017-07-26T22:10:42.803Z,64.60
2017-07-26T22:13:46.862Z,64.00
2017-07-26T22:16:50.228Z,64.00
2017-07-26T22:19:53.563Z,64.90
2017-07-26T22:22:56.903Z,63.10
2017-07-26T22:26:00.980Z,63.90
2017-07-26T22:29:05.090Z,62.70
2017-07-26T22:32:08.408Z,62.60
2017-07-26T22:35:12.490Z,63.20
2017-07-26T22:38:15.840Z,63.10
2017-07-26T22:41:19.150Z,63.50
2017-07-26T22:44:22.475Z,63.50
2017-07-26T22:47:26.060Z,62.70
2017-07-26T22:50:29.377Z,63.10
2017-07-26T22:53:32.719Z,63.30
2017-07-26T22:56:36.043Z,63.50
2017-07-26T22:59:39.364Z,64.10
2017-07-26T23:02:42.664Z,64.20
2017-07-26T23:05:46.029Z,64.50
2017-07-26T23:08:50.148Z,65.60
2017-07-26T23:11:53.455Z,65.50
2017-07-26T23:14:56.785Z,65.60
2017-07-26T23:18:00.867Z,65.50
2017-07-26T23:21:04.206Z,65.50
2017-07-26T23:24:07.663Z,66.30
2017-07-26T23:27:10.975Z,67.50
2017-07-26T23:30:14.403Z,67.50
2017-07-26T23:33:18.468Z,69.00
2017-07-26T23:36:21.822Z,69.00
2017-07-26T23:39:25.120Z,68.50
2017-07-26T23:42:28.441Z,69.00
2017-07-26T23:45:31.755Z,69.00
2017-07-26T23:48:35.114Z,69.30
2017-07-26T23:51:38.413Z,69.80
2017-07-26T23:54:41.763Z,70.70
2017-07-26T23:57:45.216Z,71.50
